Terminal Aerodrome Forecast
Issued by NWS Cleveland, OH

Home | Current Version | Previous Version | Graphics & Text | Print | Product List | Glossary On
Versions: 1 2 3 4 5 6 7 8 9 10 11 12 13 14 15 16 17 18
000
FTUS41 KCLE 290500
TAFTOL
TAF
KTOL 290540Z 2906/3006 32003KT P6SM FEW050
     FM291500 27007KT P6SM FEW035 BKN080
     FM292100 26007KT P6SM -SHRA BKN050
     FM300100 25005KT P6SM SCT040 BKN100=

USA.gov is the U.S. government's official web portal to all federal, state and local government web resources and services.